Aérodrome :
LOGIN :

S'inscrire | Disclaimer

   EN    FR    IT 

 










Légende :    VFR   VFR Marginal   IFR   IFR Intensif   IFR Très Intensif
Visi : 
Plafond : 
>= 8 km
>= 3000ft
5 à 8 km
1000 à 3000 ft
1500m à 5 km
500 à 1000 ft
800 à 1500m
200 à 500 ft
< 800m
< 200 ft
Symboles :   Orages  Brouillard  Fortes neiges  Fortes précipitations  Vent > 20 kt
SIGMETs :   Divers  Orages  Givrage  Turbulence  Onde Orograph.  Cendres Volcan.







- Altitude de l'aérodrome : 33 ft
- Code IATA : MHZ


EGUN - RAF Mildenhall

DERNIER METAR :
  • 172256Z AUTO 17005KT 9999 CLR 03/03 A3019 RMK AO2 SLP227 T00340034 $

METARs EXPIRÉS :
  • 172156Z AUTO 14007KT 9999 SCT035 BKN050 04/04 A3020 RMK AO2 SLP230 T00360035 .
  • 172101Z AUTO 15007KT 9999 SCT041 04/03 A3020 RMK AO2 SLP230 $
  • 172021Z AUTO 15008KT 9999 BKN041 OVC060 05/02 A3019 RMK AO2 SLP227 $
  • 171956Z AUTO 15009KT 9999 FEW041 OVC060 05/02 A3018 RMK AO2 SLP224 T00540022 $

TAF TAF EGUN
Valide du 17 à 20h jusqu'au 19 à 02h UTC


172014Z 1720/1902 VRB06KT 9999 BKN020 QNH3014INS
BECMG 1802/1803 VRB06KT 5000 BR SCT007 BKN020 QNH3018INS
TEMPO 1805/1809 0800 FG BKN007
BECMG 1810/1811 20009KT 9999 NSW BKN020 QNH3020INS
BECMG 1900/1901 18006KT 8000 BR SCT006 BKN015 QNH3014INS TX10/1814Z TN01/1805Z
Pas de NOTAMs connus pour ce terrain.



MET'MAP, la Météo Aéronautique d'un coup d'oeil ! - Copyright ORBIFLY Décembre 2007 - Disclaimer

ORBIFLY MET'MAP TEAM :

Programmation & Développement : Alexandra Zaïnal
Conception & Développement : Baudouin d'Aumeries
Co-Programmation & Développement : Marc-Olivier Méhu
Soutien technique & logistique : Manuel Goepfert

Contact : metmap@orbifly.com




SOURCES & CREDITS :

   NOAA